Time,TemperatureF,DewpointF,PressureIn,WindDirection,WindDirectionDegrees,WindSpeedMPH,WindSpeedGustMPH,Humidity,HourlyPrecipIn,Conditions,Clouds,dailyrainin,SoftwareType,DateUTC
2013-06-01 00:02:00,69.1,63.4,29.89,East,101,1.0,1.0,82,0.00,,,0.00,VWS V14.01,2013-06-01 04:02:00,
2013-06-01 00:12:00,68.8,63.4,29.89,East,101,0.0,3.0,83,0.00,,,0.00,VWS V14.01,2013-06-01 04:12:00,
2013-06-01 00:22:00,68.5,63.1,29.89,East,101,0.0,2.0,83,0.00,,,0.00,VWS V14.01,2013-06-01 04:22:00,
2013-06-01 00:32:00,68.3,63.3,29.89,East,101,0.0,2.0,84,0.00,,,0.00,VWS V14.01,2013-06-01 04:32:00,
2013-06-01 00:42:00,68.1,63.1,29.89,East,101,0.0,2.0,84,0.00,,,0.00,VWS V14.01,2013-06-01 04:42:00,
2013-06-01 00:52:00,68.0,63.0,29.89,East,101,0.0,2.0,84,0.00,,,0.00,VWS V14.01,2013-06-01 04:52:00,
2013-06-01 01:02:00,67.8,63.1,29.89,East,101,0.0,1.0,85,0.00,,,0.00,VWS V14.01,2013-06-01 05:02:00,
2013-06-01 01:12:00,67.6,62.9,29.89,East,101,0.0,1.0,85,0.00,,,0.00,VWS V14.01,2013-06-01 05:12:00,
2013-06-01 01:22:00,67.4,63.1,29.89,East,101,0.0,1.0,86,0.00,,,0.00,VWS V14.01,2013-06-01 05:22:00,
2013-06-01 01:32:00,67.2,62.9,29.89,East,101,0.0,1.0,86,0.00,,,0.00,VWS V14.01,2013-06-01 05:32:00,
2013-06-01 01:42:00,67.0,62.7,29.89,East,101,0.0,1.0,86,0.00,,,0.00,VWS V14.01,2013-06-01 05:42:00,
2013-06-01 01:52:00,66.9,62.9,29.88,East,101,1.0,1.0,87,0.00,,,0.00,VWS V14.01,2013-06-01 05:52:00,
2013-06-01 02:02:00,66.7,62.7,29.88,East,101,0.0,1.0,87,0.00,,,0.00,VWS V14.01,2013-06-01 06:02:00,
2013-06-01 02:12:00,66.6,62.6,29.88,East,101,0.0,1.0,87,0.00,,,0.00,VWS V14.01,2013-06-01 06:12:00,
2013-06-01 02:22:00,66.5,62.5,29.87,East,101,0.0,1.0,87,0.00,,,0.00,VWS V14.01,2013-06-01 06:22:00,
2013-06-01 02:32:00,66.3,62.6,29.87,East,101,0.0,1.0,88,0.00,,,0.00,VWS V14.01,2013-06-01 06:32:00,
2013-06-01 02:42:00,66.2,62.5,29.87,East,101,0.0,1.0,88,0.00,,,0.00,VWS V14.01,2013-06-01 06:42:00,
2013-06-01 02:52:00,66.1,62.5,29.87,East,101,0.0,1.0,88,0.00,,,0.00,VWS V14.01,2013-06-01 06:52:00,
2013-06-01 03:02:00,66.0,62.7,29.87,East,101,1.0,1.0,89,0.00,,,0.00,VWS V14.01,2013-06-01 07:02:00,
2013-06-01 03:12:00,65.9,62.6,29.87,East,101,1.0,1.0,89,0.00,,,0.00,VWS V14.01,2013-06-01 07:12:00,
2013-06-01 03:22:00,65.8,62.5,29.87,East,101,1.0,1.0,89,0.00,,,0.00,VWS V14.01,2013-06-01 07:22:00,
2013-06-01 03:32:00,65.8,62.5,29.87,East,101,0.0,1.0,89,0.00,,,0.00,VWS V14.01,2013-06-01 07:32:00,
2013-06-01 03:42:00,65.6,62.3,29.87,East,101,0.0,1.0,89,0.00,,,0.00,VWS V14.01,2013-06-01 07:42:00,
2013-06-01 03:52:00,65.5,62.2,29.87,East,101,0.0,1.0,89,0.00,,,0.00,VWS V14.01,2013-06-01 07:52:00,
2013-06-01 04:02:00,65.3,62.0,29.87,East,101,0.0,1.0,89,0.00,,,0.00,VWS V14.01,2013-06-01 08:02:00,
2013-06-01 04:12:00,65.2,61.9,29.87,East,101,0.0,1.0,89,0.00,,,0.00,VWS V14.01,2013-06-01 08:12:00,
2013-06-01 04:22:00,65.1,62.1,29.87,East,101,0.0,1.0,90,0.00,,,0.00,VWS V14.01,2013-06-01 08:22:00,
2013-06-01 04:32:00,64.9,61.9,29.87,East,101,0.0,1.0,90,0.00,,,0.00,VWS V14.01,2013-06-01 08:32:00,
2013-06-01 04:42:00,64.8,61.8,29.87,East,101,0.0,1.0,90,0.00,,,0.00,VWS V14.01,2013-06-01 08:42:00,
2013-06-01 04:52:00,64.6,61.9,29.87,East,101,0.0,0.0,91,0.00,,,0.00,VWS V14.01,2013-06-01 08:52:00,
2013-06-01 05:02:00,64.4,61.7,29.88,East,101,0.0,1.0,91,0.00,,,0.00,VWS V14.01,2013-06-01 09:02:00,
2013-06-01 05:12:00,64.3,61.6,29.88,East,101,0.0,1.0,91,0.00,,,0.00,VWS V14.01,2013-06-01 09:12:00,
2013-06-01 05:22:00,64.3,61.6,29.88,East,101,0.0,0.0,91,0.00,,,0.00,VWS V14.01,2013-06-01 09:22:00,
2013-06-01 05:32:00,64.2,61.5,29.88,East,101,0.0,1.0,91,0.00,,,0.00,VWS V14.01,2013-06-01 09:32:00,
2013-06-01 05:42:00,64.1,61.4,29.88,East,101,0.0,1.0,91,0.00,,,0.00,VWS V14.01,2013-06-01 09:42:00,
2013-06-01 05:52:00,64.0,61.6,29.88,East,101,1.0,1.0,92,0.00,,,0.00,VWS V14.01,2013-06-01 09:52:00,
2013-06-01 06:02:00,64.1,62.0,29.88,East,101,0.0,2.0,93,0.00,,,0.00,VWS V14.01,2013-06-01 10:02:00,
2013-06-01 06:12:00,64.1,62.0,29.88,East,101,0.0,1.0,93,0.00,,,0.00,VWS V14.01,2013-06-01 10:12:00,
2013-06-01 06:22:00,64.3,62.5,29.88,East,101,0.0,2.0,94,0.00,,,0.00,VWS V14.01,2013-06-01 10:22:00,
2013-06-01 06:32:00,64.5,62.7,29.88,East,101,0.0,2.0,94,0.00,,,0.00,VWS V14.01,2013-06-01 10:32:00,
2013-06-01 06:42:00,64.9,63.4,29.88,East,101,1.0,2.0,95,0.00,,,0.00,VWS V14.01,2013-06-01 10:42:00,
2013-06-01 06:52:00,65.3,63.8,29.88,East,101,1.0,2.0,95,0.00,,,0.00,VWS V14.01,2013-06-01 10:52:00,
2013-06-01 07:02:00,65.6,64.1,29.89,East,101,0.0,3.0,95,0.00,,,0.00,VWS V14.01,2013-06-01 11:02:00,
2013-06-01 07:12:00,66.1,64.3,29.89,East,101,0.0,2.0,94,0.00,,,0.00,VWS V14.01,2013-06-01 11:12:00,
2013-06-01 07:22:00,66.5,64.7,29.89,ESE,104,1.0,3.0,94,0.00,,,0.00,VWS V14.01,2013-06-01 11:22:00,
2013-06-01 07:32:00,67.0,64.9,29.89,ESE,103,1.0,3.0,93,0.00,,,0.00,VWS V14.01,2013-06-01 11:32:00,
2013-06-01 07:42:00,67.6,65.2,29.89,ESE,103,0.0,3.0,92,0.00,,,0.00,VWS V14.01,2013-06-01 11:42:00,
2013-06-01 07:52:00,68.4,65.7,29.89,East,97,3.0,4.0,91,0.00,,,0.00,VWS V14.01,2013-06-01 11:52:00,
2013-06-01 08:02:00,69.2,66.2,29.89,ESE,122,2.0,5.0,90,0.00,,,0.00,VWS V14.01,2013-06-01 12:02:00,
2013-06-01 08:12:00,69.9,66.5,29.89,East,80,1.0,4.0,89,0.00,,,0.00,VWS V14.01,2013-06-01 12:12:00,
2013-06-01 08:22:00,70.5,66.8,29.89,SE,132,0.0,4.0,88,0.00,,,0.00,VWS V14.01,2013-06-01 12:22:00,
2013-06-01 08:32:00,71.0,66.9,29.89,SE,132,1.0,4.0,87,0.00,,,0.00,VWS V14.01,2013-06-01 12:32:00,
2013-06-01 08:42:00,71.5,67.1,29.89,SE,132,1.0,3.0,86,0.00,,,0.00,VWS V14.01,2013-06-01 12:42:00,
2013-06-01 08:52:00,72.0,67.2,29.89,SE,132,1.0,3.0,85,0.00,,,0.00,VWS V14.01,2013-06-01 12:52:00,
2013-06-01 09:02:00,72.6,67.2,29.89,SE,132,2.0,4.0,83,0.00,,,0.00,VWS V14.01,2013-06-01 13:02:00,
2013-06-01 09:12:00,73.0,67.5,29.89,SSE,160,1.0,6.0,83,0.00,,,0.00,VWS V14.01,2013-06-01 13:12:00,
2013-06-01 09:22:00,73.6,67.8,29.89,SSE,150,1.0,4.0,82,0.00,,,0.00,VWS V14.01,2013-06-01 13:22:00,
2013-06-01 09:32:00,74.1,67.2,29.89,WSW,249,2.0,5.0,79,0.00,,,0.00,VWS V14.01,2013-06-01 13:32:00,
2013-06-01 09:42:00,74.8,67.9,29.89,SE,130,2.0,5.0,79,0.00,,,0.00,VWS V14.01,2013-06-01 13:42:00,
2013-06-01 09:52:00,75.4,68.1,29.88,SE,136,2.0,5.0,78,0.00,,,0.00,VWS V14.01,2013-06-01 13:52:00,
2013-06-01 10:02:00,75.7,68.0,29.89,NNE,21,1.0,6.0,77,0.00,,,0.00,VWS V14.01,2013-06-01 14:02:00,
2013-06-01 10:12:00,75.8,67.7,29.89,East,101,2.0,4.0,76,0.00,,,0.00,VWS V14.01,2013-06-01 14:12:00,
2013-06-01 10:22:00,76.1,67.6,29.88,East,96,1.0,5.0,75,0.00,,,0.00,VWS V14.01,2013-06-01 14:22:00,
2013-06-01 10:32:00,76.5,68.4,29.88,East,94,2.0,4.0,76,0.00,,,0.00,VWS V14.01,2013-06-01 14:32:00,
2013-06-01 10:42:00,77.2,68.7,29.88,ESE,114,1.0,5.0,75,0.00,,,0.00,VWS V14.01,2013-06-01 14:42:00,
2013-06-01 10:52:00,77.8,68.9,29.87,East,95,3.0,4.0,74,0.00,,,0.00,VWS V14.01,2013-06-01 14:52:00,
2013-06-01 11:02:00,78.5,68.7,29.87,SW,229,5.0,5.0,72,0.00,,,0.00,VWS V14.01,2013-06-01 15:02:00,
2013-06-01 11:12:00,79.4,69.6,29.87,East,95,1.0,4.0,72,0.00,,,0.00,VWS V14.01,2013-06-01 15:12:00,
2013-06-01 11:22:00,80.4,69.3,29.87,East,95,1.0,4.0,69,0.00,,,0.00,VWS V14.01,2013-06-01 15:22:00,
2013-06-01 11:32:00,81.1,69.6,29.87,SE,132,1.0,5.0,68,0.00,,,0.00,VWS V14.01,2013-06-01 15:32:00,
2013-06-01 11:42:00,80.8,68.8,29.87,WSW,252,1.0,5.0,67,0.00,,,0.00,VWS V14.01,2013-06-01 15:42:00,
2013-06-01 11:52:00,80.1,68.2,29.88,East,88,1.0,5.0,67,0.00,,,0.00,VWS V14.01,2013-06-01 15:52:00,
2013-06-01 12:02:00,79.6,69.8,29.87,ESE,123,1.0,4.0,72,0.00,,,0.00,VWS V14.01,2013-06-01 16:02:00,
2013-06-01 12:12:00,79.6,68.5,29.87,South,178,2.0,4.0,69,0.00,,,0.00,VWS V14.01,2013-06-01 16:12:00,
2013-06-01 12:22:00,79.6,69.0,29.87,WSW,244,1.0,4.0,70,0.00,,,0.00,VWS V14.01,2013-06-01 16:22:00,
2013-06-01 12:32:00,79.2,68.2,29.86,ESE,107,1.0,4.0,69,0.00,,,0.00,VWS V14.01,2013-06-01 16:32:00,
2013-06-01 12:42:00,79.1,68.5,29.86,SE,136,3.0,6.0,70,0.00,,,0.00,VWS V14.01,2013-06-01 16:42:00,
2013-06-01 12:52:00,79.0,68.8,29.86,East,94,1.0,6.0,71,0.00,,,0.00,VWS V14.01,2013-06-01 16:52:00,
2013-06-01 13:02:00,78.9,68.7,29.86,SSW,207,1.0,6.0,71,0.00,,,0.00,VWS V14.01,2013-06-01 17:02:00,
2013-06-01 13:12:00,78.7,68.9,29.86,SE,135,1.0,6.0,72,0.00,,,0.00,VWS V14.01,2013-06-01 17:12:00,
2013-06-01 13:22:00,78.8,68.6,29.86,SE,134,2.0,4.0,71,0.00,,,0.00,VWS V14.01,2013-06-01 17:22:00,
2013-06-01 13:32:00,79.4,68.8,29.86,SE,128,1.0,5.0,70,0.00,,,0.00,VWS V14.01,2013-06-01 17:32:00,
2013-06-01 13:42:00,79.9,68.8,29.86,SSE,166,1.0,6.0,69,0.00,,,0.00,VWS V14.01,2013-06-01 17:42:00,
2013-06-01 13:52:00,80.5,69.4,29.85,East,84,2.0,5.0,69,0.00,,,0.00,VWS V14.01,2013-06-01 17:52:00,
2013-06-01 14:02:00,80.9,69.8,29.84,ESE,120,2.0,6.0,69,0.00,,,0.00,VWS V14.01,2013-06-01 18:02:00,
2013-06-01 14:12:00,80.9,68.9,29.84,SSE,157,3.0,5.0,67,0.00,,,0.00,VWS V14.01,2013-06-01 18:12:00,
2013-06-01 14:22:00,80.5,69.0,29.84,SSW,205,1.0,6.0,68,0.00,,,0.00,VWS V14.01,2013-06-01 18:22:00,
2013-06-01 14:32:00,80.3,68.8,29.84,SE,130,3.0,6.0,68,0.00,,,0.00,VWS V14.01,2013-06-01 18:32:00,
2013-06-01 14:42:00,80.1,69.0,29.84,SSE,154,1.0,5.0,69,0.00,,,0.00,VWS V14.01,2013-06-01 18:42:00,
2013-06-01 14:52:00,79.6,67.7,29.84,SSE,147,1.0,6.0,67,0.00,,,0.00,VWS V14.01,2013-06-01 18:52:00,
2013-06-01 15:02:00,79.3,67.8,29.84,ESE,123,3.0,5.0,68,0.00,,,0.00,VWS V14.01,2013-06-01 19:02:00,
2013-06-01 15:12:00,79.1,68.1,29.84,SSW,193,2.0,9.0,69,0.00,,,0.00,VWS V14.01,2013-06-01 19:12:00,
2013-06-01 15:22:00,79.2,68.2,29.84,SSW,202,1.0,7.0,69,0.00,,,0.00,VWS V14.01,2013-06-01 19:22:00,
2013-06-01 15:32:00,79.4,68.3,29.83,SE,135,2.0,6.0,69,0.00,,,0.00,VWS V14.01,2013-06-01 19:32:00,
2013-06-01 15:42:00,79.9,68.8,29.83,SE,141,0.0,5.0,69,0.00,,,0.00,VWS V14.01,2013-06-01 19:42:00,
2013-06-01 15:52:00,80.3,68.3,29.82,SSW,210,2.0,6.0,67,0.00,,,0.00,VWS V14.01,2013-06-01 19:52:00,
2013-06-01 16:02:00,81.1,68.7,29.82,SSW,199,1.0,5.0,66,0.00,,,0.00,VWS V14.01,2013-06-01 20:02:00,
2013-06-01 16:12:00,81.8,68.9,29.82,West,271,1.0,4.0,65,0.00,,,0.00,VWS V14.01,2013-06-01 20:12:00,
2013-06-01 16:22:00,82.5,68.2,29.83,SSE,160,2.0,5.0,62,0.00,,,0.00,VWS V14.01,2013-06-01 20:22:00,
2013-06-01 16:32:00,83.2,68.4,29.83,SSE,159,2.0,5.0,61,0.00,,,0.00,VWS V14.01,2013-06-01 20:32:00,
2013-06-01 16:42:00,83.7,68.8,29.83,ESE,113,2.0,5.0,61,0.00,,,0.00,VWS V14.01,2013-06-01 20:42:00,
2013-06-01 16:52:00,83.7,68.3,29.82,NNW,342,1.0,5.0,60,0.00,,,0.00,VWS V14.01,2013-06-01 20:52:00,
2013-06-01 17:02:00,83.2,67.9,29.83,SE,131,1.0,7.0,60,0.00,,,0.00,VWS V14.01,2013-06-01 21:02:00,
2013-06-01 17:12:00,83.5,68.2,29.83,East,101,2.0,5.0,60,0.00,,,0.00,VWS V14.01,2013-06-01 21:12:00,
2013-06-01 17:22:00,83.2,68.4,29.82,South,189,2.0,7.0,61,0.00,,,0.00,VWS V14.01,2013-06-01 21:22:00,
2013-06-01 17:32:00,82.7,68.8,29.82,South,185,2.0,4.0,63,0.00,,,0.00,VWS V14.01,2013-06-01 21:32:00,
2013-06-01 17:42:00,82.8,68.0,29.82,SW,224,1.0,4.0,61,0.00,,,0.00,VWS V14.01,2013-06-01 21:42:00,
2013-06-01 17:52:00,82.5,68.2,29.82,ESE,103,2.0,5.0,62,0.00,,,0.00,VWS V14.01,2013-06-01 21:52:00,
2013-06-01 18:02:00,80.8,67.0,29.82,SE,145,5.0,10.0,63,0.00,,,0.00,VWS V14.01,2013-06-01 22:02:00,
2013-06-01 18:12:00,80.3,67.0,29.82,SSE,157,2.0,6.0,64,0.00,,,0.00,VWS V14.01,2013-06-01 22:12:00,
2013-06-01 18:22:00,80.4,68.0,29.81,SSW,199,0.0,6.0,66,0.00,,,0.00,VWS V14.01,2013-06-01 22:22:00,
2013-06-01 18:32:00,79.9,66.7,29.81,ESE,111,1.0,5.0,64,0.00,,,0.00,VWS V14.01,2013-06-01 22:32:00,
2013-06-01 18:42:00,79.7,66.9,29.81,SE,146,1.0,4.0,65,0.00,,,0.00,VWS V14.01,2013-06-01 22:42:00,
2013-06-01 18:52:00,79.2,66.4,29.81,South,182,1.0,5.0,65,0.00,,,0.00,VWS V14.01,2013-06-01 22:52:00,
2013-06-01 19:02:00,78.0,66.2,29.81,SE,127,1.0,4.0,67,0.00,,,0.00,VWS V14.01,2013-06-01 23:02:00,
2013-06-01 19:12:00,76.0,65.5,29.81,SE,139,1.0,4.0,70,0.00,,,0.00,VWS V14.01,2013-06-01 23:12:00,
2013-06-01 19:22:00,74.4,64.8,29.81,WNW,293,1.0,3.0,72,0.00,,,0.00,VWS V14.01,2013-06-01 23:22:00,
2013-06-01 19:32:00,73.5,65.1,29.81,WNW,284,3.0,3.0,75,0.00,,,0.00,VWS V14.01,2013-06-01 23:32:00,
2013-06-01 19:42:00,72.9,64.9,29.81,West,281,2.0,4.0,76,0.00,,,0.00,VWS V14.01,2013-06-01 23:42:00,
2013-06-01 19:52:00,72.1,64.5,29.81,SSE,163,2.0,4.0,77,0.00,,,0.00,VWS V14.01,2013-06-01 23:52:00,
2013-06-01 20:02:00,71.5,64.7,29.81,SE,136,2.0,6.0,79,0.00,,,0.00,VWS V14.01,2013-06-02 00:02:00,
2013-06-01 20:12:00,70.8,64.3,29.81,SE,142,1.0,5.0,80,0.00,,,0.00,VWS V14.01,2013-06-02 00:12:00,
2013-06-01 20:22:00,70.5,64.4,29.81,South,182,2.0,6.0,81,0.00,,,0.00,VWS V14.01,2013-06-02 00:22:00,
2013-06-01 20:32:00,70.1,64.4,29.81,ENE,65,1.0,4.0,82,0.00,,,0.00,VWS V14.01,2013-06-02 00:32:00,
2013-06-01 20:42:00,69.7,64.3,29.81,SSW,201,2.0,6.0,83,0.00,,,0.00,VWS V14.01,2013-06-02 00:42:00,
2013-06-01 20:52:00,69.5,64.5,29.82,ENE,64,1.0,7.0,84,0.00,,,0.00,VWS V14.01,2013-06-02 00:52:00,
2013-06-01 21:02:00,69.5,64.5,29.82,ESE,114,1.0,4.0,84,0.00,,,0.00,VWS V14.01,2013-06-02 01:02:00,
2013-06-01 21:12:00,69.5,64.5,29.82,ENE,69,1.0,6.0,84,0.00,,,0.00,VWS V14.01,2013-06-02 01:12:00,
2013-06-01 21:22:00,69.5,64.5,29.82,SSE,163,3.0,7.0,84,0.00,,,0.00,VWS V14.01,2013-06-02 01:22:00,
2013-06-01 21:32:00,69.6,64.6,29.82,East,95,1.0,9.0,84,0.00,,,0.00,VWS V14.01,2013-06-02 01:32:00,
2013-06-01 21:42:00,69.7,64.7,29.82,SE,134,2.0,5.0,84,0.00,,,0.00,VWS V14.01,2013-06-02 01:42:00,
2013-06-01 21:52:00,69.7,64.7,29.82,South,174,0.0,6.0,84,0.00,,,0.00,VWS V14.01,2013-06-02 01:52:00,
2013-06-01 22:02:00,69.7,64.7,29.82,ESE,104,1.0,5.0,84,0.00,,,0.00,VWS V14.01,2013-06-02 02:02:00,
2013-06-01 22:12:00,69.6,64.6,29.82,SW,236,1.0,7.0,84,0.00,,,0.00,VWS V14.01,2013-06-02 02:12:00,
2013-06-01 22:22:00,69.4,64.4,29.82,East,79,3.0,4.0,84,0.00,,,0.00,VWS V14.01,2013-06-02 02:22:00,
2013-06-01 22:32:00,69.2,64.2,29.82,SE,128,1.0,4.0,84,0.00,,,0.00,VWS V14.01,2013-06-02 02:32:00,
2013-06-01 22:42:00,69.0,63.6,29.82,ENE,66,1.0,4.0,83,0.00,,,0.00,VWS V14.01,2013-06-02 02:42:00,
2013-06-01 22:52:00,68.7,63.3,29.81,SE,136,0.0,5.0,83,0.00,,,0.00,VWS V14.01,2013-06-02 02:52:00,
2013-06-01 23:02:00,68.4,63.4,29.82,East,84,2.0,6.0,84,0.00,,,0.00,VWS V14.01,2013-06-02 03:02:00,
2013-06-01 23:12:00,68.2,63.2,29.82,SSE,154,1.0,6.0,84,0.00,,,0.00,VWS V14.01,2013-06-02 03:12:00,
2013-06-01 23:22:00,68.1,63.1,29.81,East,98,2.0,6.0,84,0.00,,,0.00,VWS V14.01,2013-06-02 03:22:00,
2013-06-01 23:32:00,68.1,63.4,29.81,East,84,1.0,5.0,85,0.00,,,0.00,VWS V14.01,2013-06-02 03:32:00,
2013-06-01 23:42:00,68.1,63.4,29.81,SE,144,2.0,9.0,85,0.00,,,0.00,VWS V14.01,2013-06-02 03:42:00,
2013-06-01 23:52:00,68.0,63.3,29.81,SSE,159,2.0,6.0,85,0.00,,,0.00,VWS V14.01,2013-06-02 03:52:00,